Portada
METAR-TAF:

METAR-TAF

Aeroports :

Hua Hin, Tailàndia

latitud: 12-35N, longitud: 099-57E, altitud: 5 m

Observació

L'informe es va fer fa 10 hores i 33 minuts, a les 11:00 UTC
Vent 11 kt del Sud/Sud-Est, variant entre Sud-Est i Sud/Sud-Oest
Temperatura 32°C
Humitat 75%
Pressió 1004 hPa
Visibilitat 10 km o més
Escasses núvols a una alçada de 3000 ft

METAR: VTPH 191100Z 16011KT 140V210 9999 FEW030 32/27 Q1004 NOSIG

Hora: 04:33 (21:33 UTC)

Pronòstic

L'informe es va fer fa 4 hores i 33 minuts, a les 17:00 UTC
Pronòstic vàlid del 19 a les 18 UTC al 20 a les 18 UTC
Vent 2 kt amb direcció variable
Visibilitat 10 km o més
Escasses núvols a una alçada de 3000 ft
Evolucionant progressivament
l' 20 a les 01 UTC al 20 a les 03 UTC
Vent 10 kt del Sud/Sud-Est
Evolucionant progressivament
l' 20 a les 14 UTC al 20 a les 16 UTC
Vent 5 kt del Sud-Oest

TAF: VTPH 191700Z 1918/2018 VRB02KT 9999 FEW030 BECMG 2001/2003 15010KT BECMG 2014/2016 23005KT

Observacions i pronòstics meteorològics de més de 4000 aeroports (METAR i TAF).

Les estacions disponibles són els punts grocs i vermells al mapa.

Posi el ratolí al punt desitjat per veure el nom de l'estació.

Feu clic per veure les observacions i els pronòstics meteorològics.

Per canviar el mapa: feu clic els botons verds amb una creu de color negre per apropar; al botó verd amb un guió per allunyar la imatge; o en les fletxes verdes per a mapes adjacents.


METAR-TAF: